sensor_id;sensor_type;location;lat;lon;timestamp;P1;durP1;ratioP1;P2;durP2;ratioP2
35245;SDS011;21379;50.962;6.960;2023-10-31T00:00:51;1.73;;;1.40;;
35245;SDS011;21379;50.962;6.960;2023-10-31T00:03:17;2.90;;;1.60;;
35245;SDS011;21379;50.962;6.960;2023-10-31T00:05:44;2.78;;;1.55;;
35245;SDS011;21379;50.962;6.960;2023-10-31T00:08:11;3.30;;;1.70;;
35245;SDS011;21379;50.962;6.960;2023-10-31T00:10:39;2.50;;;1.92;;
35245;SDS011;21379;50.962;6.960;2023-10-31T00:13:09;2.53;;;2.10;;
35245;SDS011;21379;50.962;6.960;2023-10-31T00:15:36;3.05;;;2.40;;
35245;SDS011;21379;50.962;6.960;2023-10-31T00:18:03;2.53;;;2.33;;
35245;SDS011;21379;50.962;6.960;2023-10-31T00:20:30;3.00;;;2.70;;
35245;SDS011;21379;50.962;6.960;2023-10-31T00:22:56;4.88;;;2.90;;
35245;SDS011;21379;50.962;6.960;2023-10-31T00:25:23;3.97;;;2.90;;
35245;SDS011;21379;50.962;6.960;2023-10-31T00:27:51;4.30;;;3.25;;
35245;SDS011;21379;50.962;6.960;2023-10-31T00:30:18;5.53;;;3.38;;
35245;SDS011;21379;50.962;6.960;2023-10-31T00:32:44;4.20;;;3.60;;
35245;SDS011;21379;50.962;6.960;2023-10-31T00:35:11;4.22;;;3.22;;
35245;SDS011;21379;50.962;6.960;2023-10-31T00:37:38;2.70;;;2.45;;
35245;SDS011;21379;50.962;6.960;2023-10-31T00:40:06;2.60;;;2.40;;
35245;SDS011;21379;50.962;6.960;2023-10-31T00:42:36;2.85;;;2.55;;
35245;SDS011;21379;50.962;6.960;2023-10-31T00:45:04;2.58;;;2.28;;
35245;SDS011;21379;50.962;6.960;2023-10-31T00:47:32;3.67;;;3.17;;
35245;SDS011;21379;50.962;6.960;2023-10-31T00:49:58;3.53;;;2.75;;
35245;SDS011;21379;50.962;6.960;2023-10-31T00:52:25;5.22;;;2.42;;
35245;SDS011;21379;50.962;6.960;2023-10-31T00:54:52;3.45;;;2.10;;
35245;SDS011;21379;50.962;6.960;2023-10-31T00:57:18;3.20;;;2.25;;
35245;SDS011;21379;50.962;6.960;2023-10-31T00:59:45;4.45;;;2.65;;
35245;SDS011;21379;50.962;6.960;2023-10-31T01:02:13;3.55;;;2.40;;
35245;SDS011;21379;50.962;6.960;2023-10-31T01:04:40;5.10;;;2.78;;
35245;SDS011;21379;50.962;6.960;2023-10-31T01:07:07;2.67;;;2.25;;
35245;SDS011;21379;50.962;6.960;2023-10-31T01:09:37;4.53;;;2.13;;
35245;SDS011;21379;50.962;6.960;2023-10-31T01:12:04;2.72;;;1.92;;
35245;SDS011;21379;50.962;6.960;2023-10-31T01:14:31;3.42;;;2.10;;
35245;SDS011;21379;50.962;6.960;2023-10-31T01:16:58;3.40;;;2.63;;
35245;SDS011;21379;50.962;6.960;2023-10-31T01:19:26;3.65;;;2.40;;
35245;SDS011;21379;50.962;6.960;2023-10-31T01:21:52;5.57;;;2.15;;
35245;SDS011;21379;50.962;6.960;2023-10-31T01:24:19;3.85;;;1.75;;
35245;SDS011;21379;50.962;6.960;2023-10-31T01:26:46;6.95;;;1.90;;
35245;SDS011;21379;50.962;6.960;2023-10-31T01:29:12;6.45;;;2.08;;
35245;SDS011;21379;50.962;6.960;2023-10-31T01:31:40;2.22;;;1.60;;
35245;SDS011;21379;50.962;6.960;2023-10-31T01:36:35;2.35;;;1.67;;
35245;SDS011;21379;50.962;6.960;2023-10-31T01:39:01;2.83;;;1.80;;
35245;SDS011;21379;50.962;6.960;2023-10-31T01:41:28;5.60;;;2.80;;
35245;SDS011;21379;50.962;6.960;2023-10-31T01:43:55;4.15;;;2.13;;
35245;SDS011;21379;50.962;6.960;2023-10-31T01:46:21;2.28;;;1.60;;
35245;SDS011;21379;50.962;6.960;2023-10-31T01:48:48;2.33;;;1.80;;
35245;SDS011;21379;50.962;6.960;2023-10-31T01:51:15;4.15;;;1.90;;
35245;SDS011;21379;50.962;6.960;2023-10-31T01:53:43;3.53;;;1.80;;
35245;SDS011;21379;50.962;6.960;2023-10-31T01:56:10;2.05;;;1.70;;
35245;SDS011;21379;50.962;6.960;2023-10-31T01:58:37;3.40;;;1.90;;
35245;SDS011;21379;50.962;6.960;2023-10-31T02:01:04;6.93;;;2.00;;
35245;SDS011;21379;50.962;6.960;2023-10-31T02:05:58;2.63;;;1.65;;
35245;SDS011;21379;50.962;6.960;2023-10-31T02:08:25;5.30;;;1.90;;
35245;SDS011;21379;50.962;6.960;2023-10-31T02:10:53;4.40;;;2.13;;
35245;SDS011;21379;50.962;6.960;2023-10-31T02:13:19;3.70;;;2.05;;
35245;SDS011;21379;50.962;6.960;2023-10-31T02:15:46;3.05;;;1.63;;
35245;SDS011;21379;50.962;6.960;2023-10-31T02:18:13;3.63;;;2.15;;
35245;SDS011;21379;50.962;6.960;2023-10-31T02:20:40;3.30;;;1.55;;
35245;SDS011;21379;50.962;6.960;2023-10-31T02:23:08;4.72;;;1.80;;
35245;SDS011;21379;50.962;6.960;2023-10-31T02:25:35;2.03;;;1.50;;
35245;SDS011;21379;50.962;6.960;2023-10-31T02:28:01;5.07;;;1.83;;
35245;SDS011;21379;50.962;6.960;2023-10-31T02:30:28;2.58;;;1.40;;
35245;SDS011;21379;50.962;6.960;2023-10-31T02:32:55;4.05;;;1.70;;
35245;SDS011;21379;50.962;6.960;2023-10-31T02:35:21;3.10;;;1.60;;
35245;SDS011;21379;50.962;6.960;2023-10-31T02:37:48;3.50;;;1.30;;
35245;SDS011;21379;50.962;6.960;2023-10-31T02:40:16;3.13;;;1.40;;
35245;SDS011;21379;50.962;6.960;2023-10-31T02:42:43;4.38;;;1.27;;
35245;SDS011;21379;50.962;6.960;2023-10-31T02:45:10;6.47;;;1.55;;
35245;SDS011;21379;50.962;6.960;2023-10-31T02:47:37;3.08;;;1.45;;
35245;SDS011;21379;50.962;6.960;2023-10-31T02:50:04;2.22;;;1.45;;
35245;SDS011;21379;50.962;6.960;2023-10-31T02:54:58;1.60;;;1.20;;
35245;SDS011;21379;50.962;6.960;2023-10-31T02:57:26;4.43;;;1.60;;
35245;SDS011;21379;50.962;6.960;2023-10-31T02:59:53;4.80;;;1.50;;
35245;SDS011;21379;50.962;6.960;2023-10-31T03:02:19;4.93;;;2.00;;
35245;SDS011;21379;50.962;6.960;2023-10-31T03:04:47;2.88;;;1.40;;
35245;SDS011;21379;50.962;6.960;2023-10-31T03:07:14;2.53;;;1.60;;
35245;SDS011;21379;50.962;6.960;2023-10-31T03:09:40;2.85;;;1.20;;
35245;SDS011;21379;50.962;6.960;2023-10-31T03:12:07;2.05;;;1.25;;
35245;SDS011;21379;50.962;6.960;2023-10-31T03:14:35;3.00;;;1.67;;
35245;SDS011;21379;50.962;6.960;2023-10-31T03:17:02;1.48;;;1.20;;
35245;SDS011;21379;50.962;6.960;2023-10-31T03:19:29;3.35;;;1.60;;
35245;SDS011;21379;50.962;6.960;2023-10-31T03:21:56;2.05;;;1.05;;
35245;SDS011;21379;50.962;6.960;2023-10-31T03:24:22;2.47;;;1.08;;
35245;SDS011;21379;50.962;6.960;2023-10-31T03:26:49;2.72;;;1.00;;
35245;SDS011;21379;50.962;6.960;2023-10-31T03:29:16;1.80;;;1.10;;
35245;SDS011;21379;50.962;6.960;2023-10-31T03:31:44;2.67;;;1.30;;
35245;SDS011;21379;50.962;6.960;2023-10-31T03:34:10;10.60;;;2.10;;
35245;SDS011;21379;50.962;6.960;2023-10-31T03:36:37;4.38;;;1.45;;
35245;SDS011;21379;50.962;6.960;2023-10-31T03:39:04;6.80;;;1.15;;
35245;SDS011;21379;50.962;6.960;2023-10-31T03:41:30;6.43;;;1.20;;
35245;SDS011;21379;50.962;6.960;2023-10-31T03:43:57;2.83;;;1.10;;
35245;SDS011;21379;50.962;6.960;2023-10-31T03:46:24;1.77;;;1.00;;
35245;SDS011;21379;50.962;6.960;2023-10-31T03:48:52;4.00;;;1.27;;
35245;SDS011;21379;50.962;6.960;2023-10-31T03:51:18;2.00;;;1.10;;
35245;SDS011;21379;50.962;6.960;2023-10-31T03:53:45;4.78;;;1.13;;
35245;SDS011;21379;50.962;6.960;2023-10-31T03:56:12;1.45;;;0.98;;
35245;SDS011;21379;50.962;6.960;2023-10-31T03:58:40;2.72;;;0.93;;
35245;SDS011;21379;50.962;6.960;2023-10-31T04:01:08;2.47;;;0.88;;
35245;SDS011;21379;50.962;6.960;2023-10-31T04:03:35;1.98;;;0.85;;
35245;SDS011;21379;50.962;6.960;2023-10-31T04:06:03;2.45;;;1.13;;
35245;SDS011;21379;50.962;6.960;2023-10-31T04:08:30;2.53;;;1.08;;
35245;SDS011;21379;50.962;6.960;2023-10-31T04:10:57;2.00;;;1.10;;
35245;SDS011;21379;50.962;6.960;2023-10-31T04:13:24;2.67;;;1.13;;
35245;SDS011;21379;50.962;6.960;2023-10-31T04:15:50;4.18;;;1.60;;
35245;SDS011;21379;50.962;6.960;2023-10-31T04:18:17;2.13;;;0.80;;
35245;SDS011;21379;50.962;6.960;2023-10-31T04:20:44;1.50;;;0.77;;
35245;SDS011;21379;50.962;6.960;2023-10-31T04:23:12;3.25;;;1.00;;
35245;SDS011;21379;50.962;6.960;2023-10-31T04:25:38;1.73;;;0.80;;
35245;SDS011;21379;50.962;6.960;2023-10-31T04:28:05;2.67;;;0.90;;
35245;SDS011;21379;50.962;6.960;2023-10-31T04:30:32;1.70;;;0.90;;
35245;SDS011;21379;50.962;6.960;2023-10-31T04:32:58;3.40;;;1.17;;
35245;SDS011;21379;50.962;6.960;2023-10-31T04:35:25;2.08;;;0.70;;
35245;SDS011;21379;50.962;6.960;2023-10-31T04:37:52;1.75;;;0.93;;
35245;SDS011;21379;50.962;6.960;2023-10-31T04:40:20;2.83;;;1.20;;
35245;SDS011;21379;50.962;6.960;2023-10-31T04:42:47;1.80;;;0.90;;
35245;SDS011;21379;50.962;6.960;2023-10-31T04:45:13;3.03;;;0.70;;
35245;SDS011;21379;50.962;6.960;2023-10-31T04:47:41;1.58;;;0.80;;
35245;SDS011;21379;50.962;6.960;2023-10-31T04:50:08;2.60;;;0.90;;
35245;SDS011;21379;50.962;6.960;2023-10-31T04:52:35;1.00;;;0.80;;
35245;SDS011;21379;50.962;6.960;2023-10-31T04:55:02;2.28;;;0.85;;
35245;SDS011;21379;50.962;6.960;2023-10-31T04:57:30;1.80;;;0.85;;
35245;SDS011;21379;50.962;6.960;2023-10-31T04:59:57;0.98;;;0.63;;
35245;SDS011;21379;50.962;6.960;2023-10-31T05:02:24;3.00;;;0.90;;
35245;SDS011;21379;50.962;6.960;2023-10-31T05:04:51;2.17;;;0.90;;
35245;SDS011;21379;50.962;6.960;2023-10-31T05:07:17;1.20;;;0.90;;
35245;SDS011;21379;50.962;6.960;2023-10-31T05:09:44;1.58;;;0.90;;
35245;SDS011;21379;50.962;6.960;2023-10-31T05:12:11;1.95;;;1.13;;
35245;SDS011;21379;50.962;6.960;2023-10-31T05:14:39;1.98;;;1.20;;
35245;SDS011;21379;50.962;6.960;2023-10-31T05:17:06;1.70;;;1.38;;
35245;SDS011;21379;50.962;6.960;2023-10-31T05:19:32;2.05;;;1.60;;
35245;SDS011;21379;50.962;6.960;2023-10-31T05:21:59;2.28;;;1.20;;
35245;SDS011;21379;50.962;6.960;2023-10-31T05:24:26;1.88;;;1.10;;
35245;SDS011;21379;50.962;6.960;2023-10-31T05:26:53;1.75;;;1.35;;
35245;SDS011;21379;50.962;6.960;2023-10-31T05:29:19;2.45;;;1.35;;
35245;SDS011;21379;50.962;6.960;2023-10-31T05:31:47;2.65;;;0.98;;
35245;SDS011;21379;50.962;6.960;2023-10-31T05:34:14;2.75;;;1.50;;
35245;SDS011;21379;50.962;6.960;2023-10-31T05:36:41;3.88;;;1.40;;
35245;SDS011;21379;50.962;6.960;2023-10-31T05:39:08;2.83;;;1.48;;
35245;SDS011;21379;50.962;6.960;2023-10-31T05:41:35;4.28;;;1.65;;
35245;SDS011;21379;50.962;6.960;2023-10-31T05:44:02;2.53;;;1.80;;
35245;SDS011;21379;50.962;6.960;2023-10-31T05:46:29;4.45;;;2.00;;
35245;SDS011;21379;50.962;6.960;2023-10-31T05:48:57;4.03;;;2.47;;
35245;SDS011;21379;50.962;6.960;2023-10-31T05:51:24;2.75;;;1.70;;
35245;SDS011;21379;50.962;6.960;2023-10-31T05:53:51;3.45;;;1.80;;
35245;SDS011;21379;50.962;6.960;2023-10-31T05:56:18;3.35;;;1.90;;
35245;SDS011;21379;50.962;6.960;2023-10-31T05:58:45;3.50;;;1.65;;
35245;SDS011;21379;50.962;6.960;2023-10-31T06:01:12;3.20;;;1.70;;
35245;SDS011;21379;50.962;6.960;2023-10-31T06:03:40;2.33;;;1.80;;
35245;SDS011;21379;50.962;6.960;2023-10-31T06:06:12;3.28;;;1.63;;
35245;SDS011;21379;50.962;6.960;2023-10-31T06:08:39;2.95;;;2.00;;
35245;SDS011;21379;50.962;6.960;2023-10-31T06:11:06;5.05;;;1.90;;
35245;SDS011;21379;50.962;6.960;2023-10-31T06:13:37;2.08;;;1.80;;
35245;SDS011;21379;50.962;6.960;2023-10-31T06:16:07;4.30;;;1.50;;
35245;SDS011;21379;50.962;6.960;2023-10-31T06:18:33;2.17;;;1.48;;
35245;SDS011;21379;50.962;6.960;2023-10-31T06:21:00;3.13;;;1.90;;
35245;SDS011;21379;50.962;6.960;2023-10-31T06:23:28;3.13;;;1.90;;
35245;SDS011;21379;50.962;6.960;2023-10-31T06:25:55;4.95;;;1.55;;
35245;SDS011;21379;50.962;6.960;2023-10-31T06:28:22;3.05;;;2.03;;
35245;SDS011;21379;50.962;6.960;2023-10-31T06:30:52;2.50;;;1.70;;
35245;SDS011;21379;50.962;6.960;2023-10-31T06:33:20;2.95;;;2.08;;
35245;SDS011;21379;50.962;6.960;2023-10-31T06:35:46;4.47;;;2.55;;
35245;SDS011;21379;50.962;6.960;2023-10-31T06:38:16;4.30;;;2.83;;
35245;SDS011;21379;50.962;6.960;2023-10-31T06:40:44;3.30;;;2.63;;
35245;SDS011;21379;50.962;6.960;2023-10-31T06:43:11;2.50;;;2.20;;
35245;SDS011;21379;50.962;6.960;2023-10-31T06:45:40;2.97;;;2.30;;
35245;SDS011;21379;50.962;6.960;2023-10-31T06:48:07;2.33;;;2.00;;
35245;SDS011;21379;50.962;6.960;2023-10-31T06:50:34;3.28;;;2.15;;
35245;SDS011;21379;50.962;6.960;2023-10-31T06:53:01;2.90;;;2.15;;
35245;SDS011;21379;50.962;6.960;2023-10-31T06:55:30;3.80;;;2.20;;
35245;SDS011;21379;50.962;6.960;2023-10-31T06:57:58;3.47;;;2.38;;
35245;SDS011;21379;50.962;6.960;2023-10-31T07:00:27;2.67;;;2.10;;
35245;SDS011;21379;50.962;6.960;2023-10-31T07:02:53;4.30;;;2.17;;
35245;SDS011;21379;50.962;6.960;2023-10-31T07:05:20;11.45;;;2.72;;
35245;SDS011;21379;50.962;6.960;2023-10-31T07:07:47;3.90;;;2.97;;
35245;SDS011;21379;50.962;6.960;2023-10-31T07:10:14;3.85;;;2.35;;
35245;SDS011;21379;50.962;6.960;2023-10-31T07:12:40;4.45;;;2.85;;
35245;SDS011;21379;50.962;6.960;2023-10-31T07:15:09;5.88;;;2.70;;
35245;SDS011;21379;50.962;6.960;2023-10-31T07:17:36;7.35;;;3.33;;
35245;SDS011;21379;50.962;6.960;2023-10-31T07:20:03;4.20;;;3.05;;
35245;SDS011;21379;50.962;6.960;2023-10-31T07:22:31;2.97;;;2.67;;
35245;SDS011;21379;50.962;6.960;2023-10-31T07:24:59;4.40;;;2.78;;
35245;SDS011;21379;50.962;6.960;2023-10-31T07:27:28;5.60;;;2.90;;
35245;SDS011;21379;50.962;6.960;2023-10-31T07:29:55;4.28;;;2.80;;
35245;SDS011;21379;50.962;6.960;2023-10-31T07:32:23;4.90;;;3.13;;
35245;SDS011;21379;50.962;6.960;2023-10-31T07:34:50;5.68;;;2.90;;
35245;SDS011;21379;50.962;6.960;2023-10-31T07:37:16;4.45;;;3.10;;
35245;SDS011;21379;50.962;6.960;2023-10-31T07:39:46;4.18;;;3.28;;
35245;SDS011;21379;50.962;6.960;2023-10-31T07:42:13;5.28;;;3.10;;
35245;SDS011;21379;50.962;6.960;2023-10-31T07:44:40;5.40;;;3.50;;
35245;SDS011;21379;50.962;6.960;2023-10-31T07:47:07;3.75;;;3.05;;
35245;SDS011;21379;50.962;6.960;2023-10-31T07:49:35;5.18;;;3.65;;
35245;SDS011;21379;50.962;6.960;2023-10-31T07:52:02;5.53;;;3.40;;
35245;SDS011;21379;50.962;6.960;2023-10-31T07:54:29;5.50;;;3.65;;
35245;SDS011;21379;50.962;6.960;2023-10-31T07:56:56;6.03;;;3.97;;
35245;SDS011;21379;50.962;6.960;2023-10-31T07:59:23;4.10;;;3.20;;
35245;SDS011;21379;50.962;6.960;2023-10-31T08:01:49;5.00;;;3.03;;
35245;SDS011;21379;50.962;6.960;2023-10-31T08:04:17;4.10;;;2.78;;
35245;SDS011;21379;50.962;6.960;2023-10-31T08:06:45;3.97;;;3.05;;
35245;SDS011;21379;50.962;6.960;2023-10-31T08:09:12;3.80;;;2.50;;
35245;SDS011;21379;50.962;6.960;2023-10-31T08:11:38;3.70;;;2.72;;
35245;SDS011;21379;50.962;6.960;2023-10-31T08:14:05;5.68;;;2.55;;
35245;SDS011;21379;50.962;6.960;2023-10-31T08:16:32;3.78;;;2.72;;
35245;SDS011;21379;50.962;6.960;2023-10-31T08:18:59;5.38;;;2.20;;
35245;SDS011;21379;50.962;6.960;2023-10-31T08:21:26;4.55;;;2.10;;
35245;SDS011;21379;50.962;6.960;2023-10-31T08:23:59;4.38;;;2.30;;
35245;SDS011;21379;50.962;6.960;2023-10-31T08:26:26;3.90;;;2.28;;
35245;SDS011;21379;50.962;6.960;2023-10-31T08:28:53;3.85;;;2.63;;
35245;SDS011;21379;50.962;6.960;2023-10-31T08:31:20;3.75;;;2.00;;
35245;SDS011;21379;50.962;6.960;2023-10-31T08:33:46;3.40;;;2.10;;
35245;SDS011;21379;50.962;6.960;2023-10-31T08:36:13;3.53;;;2.40;;
35245;SDS011;21379;50.962;6.960;2023-10-31T08:38:40;4.50;;;2.78;;
35245;SDS011;21379;50.962;6.960;2023-10-31T08:41:08;3.15;;;2.10;;
35245;SDS011;21379;50.962;6.960;2023-10-31T08:43:35;3.28;;;2.20;;
35245;SDS011;21379;50.962;6.960;2023-10-31T08:46:02;3.08;;;2.20;;
35245;SDS011;21379;50.962;6.960;2023-10-31T08:48:29;2.72;;;2.28;;
35245;SDS011;21379;50.962;6.960;2023-10-31T08:50:55;3.13;;;2.17;;
35245;SDS011;21379;50.962;6.960;2023-10-31T08:53:22;7.30;;;2.17;;
35245;SDS011;21379;50.962;6.960;2023-10-31T08:55:49;5.60;;;2.47;;
35245;SDS011;21379;50.962;6.960;2023-10-31T08:58:17;4.03;;;1.98;;
35245;SDS011;21379;50.962;6.960;2023-10-31T09:00:44;2.45;;;1.73;;
35245;SDS011;21379;50.962;6.960;2023-10-31T09:03:11;2.25;;;1.90;;
35245;SDS011;21379;50.962;6.960;2023-10-31T09:05:39;4.13;;;2.53;;
35245;SDS011;21379;50.962;6.960;2023-10-31T09:08:06;2.63;;;1.80;;
35245;SDS011;21379;50.962;6.960;2023-10-31T09:10:35;3.90;;;2.10;;
35245;SDS011;21379;50.962;6.960;2023-10-31T09:13:03;2.63;;;2.05;;
35245;SDS011;21379;50.962;6.960;2023-10-31T09:15:31;2.83;;;1.85;;
35245;SDS011;21379;50.962;6.960;2023-10-31T09:17:58;3.15;;;1.90;;
35245;SDS011;21379;50.962;6.960;2023-10-31T09:20:24;3.65;;;1.60;;
35245;SDS011;21379;50.962;6.960;2023-10-31T09:22:51;4.68;;;2.10;;
35245;SDS011;21379;50.962;6.960;2023-10-31T09:25:18;3.25;;;2.15;;
35245;SDS011;21379;50.962;6.960;2023-10-31T09:27:45;3.28;;;2.10;;
35245;SDS011;21379;50.962;6.960;2023-10-31T09:30:11;4.05;;;2.45;;
35245;SDS011;21379;50.962;6.960;2023-10-31T09:32:40;3.63;;;2.22;;
35245;SDS011;21379;50.962;6.960;2023-10-31T09:35:07;3.50;;;2.25;;
35245;SDS011;21379;50.962;6.960;2023-10-31T09:37:34;4.45;;;2.28;;
35245;SDS011;21379;50.962;6.960;2023-10-31T09:40:01;3.13;;;2.10;;
35245;SDS011;21379;50.962;6.960;2023-10-31T09:42:28;3.38;;;1.73;;
35245;SDS011;21379;50.962;6.960;2023-10-31T09:44:54;2.70;;;1.67;;
35245;SDS011;21379;50.962;6.960;2023-10-31T09:47:21;5.00;;;1.85;;
35245;SDS011;21379;50.962;6.960;2023-10-31T09:49:50;4.45;;;1.90;;
35245;SDS011;21379;50.962;6.960;2023-10-31T09:52:17;8.82;;;2.42;;
35245;SDS011;21379;50.962;6.960;2023-10-31T09:54:46;2.28;;;1.60;;
35245;SDS011;21379;50.962;6.960;2023-10-31T09:57:14;2.95;;;2.05;;
35245;SDS011;21379;50.962;6.960;2023-10-31T09:59:42;15.93;;;2.97;;
35245;SDS011;21379;50.962;6.960;2023-10-31T10:02:08;3.50;;;1.48;;
35245;SDS011;21379;50.962;6.960;2023-10-31T10:04:35;5.20;;;1.33;;
35245;SDS011;21379;50.962;6.960;2023-10-31T10:07:03;2.42;;;1.63;;
35245;SDS011;21379;50.962;6.960;2023-10-31T10:09:31;2.92;;;1.48;;
35245;SDS011;21379;50.962;6.960;2023-10-31T10:11:58;1.48;;;1.05;;
35245;SDS011;21379;50.962;6.960;2023-10-31T10:14:27;6.60;;;1.50;;
35245;SDS011;21379;50.962;6.960;2023-10-31T10:16:56;3.67;;;1.10;;
35245;SDS011;21379;50.962;6.960;2023-10-31T10:19:24;2.22;;;1.20;;
35245;SDS011;21379;50.962;6.960;2023-10-31T10:21:51;2.22;;;1.10;;
35245;SDS011;21379;50.962;6.960;2023-10-31T10:26:47;6.35;;;1.23;;
35245;SDS011;21379;50.962;6.960;2023-10-31T10:29:14;1.85;;;1.00;;
35245;SDS011;21379;50.962;6.960;2023-10-31T10:31:41;1.23;;;0.93;;
35245;SDS011;21379;50.962;6.960;2023-10-31T10:34:08;2.42;;;0.63;;
35245;SDS011;21379;50.962;6.960;2023-10-31T10:36:35;1.30;;;0.70;;
35245;SDS011;21379;50.962;6.960;2023-10-31T10:39:01;1.35;;;0.90;;
35245;SDS011;21379;50.962;6.960;2023-10-31T10:41:30;1.42;;;0.80;;
35245;SDS011;21379;50.962;6.960;2023-10-31T10:44:03;3.00;;;1.35;;
35245;SDS011;21379;50.962;6.960;2023-10-31T10:46:31;3.65;;;0.88;;
35245;SDS011;21379;50.962;6.960;2023-10-31T10:49:03;2.33;;;0.75;;
35245;SDS011;21379;50.962;6.960;2023-10-31T10:51:35;2.63;;;0.70;;
35245;SDS011;21379;50.962;6.960;2023-10-31T10:54:08;2.90;;;0.77;;
35245;SDS011;21379;50.962;6.960;2023-10-31T10:56:41;2.97;;;1.10;;
35245;SDS011;21379;50.962;6.960;2023-10-31T10:59:22;2.97;;;0.90;;
35245;SDS011;21379;50.962;6.960;2023-10-31T11:01:55;3.58;;;0.68;;
35245;SDS011;21379;50.962;6.960;2023-10-31T11:04:23;2.88;;;0.75;;
35245;SDS011;21379;50.962;6.960;2023-10-31T11:06:50;2.95;;;0.60;;
35245;SDS011;21379;50.962;6.960;2023-10-31T11:09:18;1.73;;;0.60;;
35245;SDS011;21379;50.962;6.960;2023-10-31T11:11:47;1.98;;;0.80;;
35245;SDS011;21379;50.962;6.960;2023-10-31T11:14:14;2.72;;;0.60;;
35245;SDS011;21379;50.962;6.960;2023-10-31T11:16:43;1.30;;;0.70;;
35245;SDS011;21379;50.962;6.960;2023-10-31T11:19:11;1.05;;;0.82;;
35245;SDS011;21379;50.962;6.960;2023-10-31T11:21:49;1.27;;;0.50;;
35245;SDS011;21379;50.962;6.960;2023-10-31T11:24:20;1.90;;;0.60;;
35245;SDS011;21379;50.962;6.960;2023-10-31T11:26:52;2.30;;;0.50;;
35245;SDS011;21379;50.962;6.960;2023-10-31T11:29:19;3.25;;;0.73;;
35245;SDS011;21379;50.962;6.960;2023-10-31T11:31:46;1.55;;;0.63;;
35245;SDS011;21379;50.962;6.960;2023-10-31T11:34:15;1.58;;;0.60;;
35245;SDS011;21379;50.962;6.960;2023-10-31T11:36:42;2.38;;;0.52;;
35245;SDS011;21379;50.962;6.960;2023-10-31T11:39:12;1.52;;;0.70;;
35245;SDS011;21379;50.962;6.960;2023-10-31T11:41:40;1.52;;;0.70;;
35245;SDS011;21379;50.962;6.960;2023-10-31T11:44:08;3.35;;;0.82;;
35245;SDS011;21379;50.962;6.960;2023-10-31T11:46:35;1.33;;;0.63;;
35245;SDS011;21379;50.962;6.960;2023-10-31T11:49:02;4.53;;;0.73;;
35245;SDS011;21379;50.962;6.960;2023-10-31T11:51:30;1.20;;;0.85;;
35245;SDS011;21379;50.962;6.960;2023-10-31T11:53:57;0.80;;;0.52;;
35245;SDS011;21379;50.962;6.960;2023-10-31T11:56:25;2.40;;;0.80;;
35245;SDS011;21379;50.962;6.960;2023-10-31T11:58:56;1.30;;;0.80;;
35245;SDS011;21379;50.962;6.960;2023-10-31T12:01:24;0.80;;;0.60;;
35245;SDS011;21379;50.962;6.960;2023-10-31T12:03:51;0.52;;;0.50;;
35245;SDS011;21379;50.962;6.960;2023-10-31T12:06:18;1.73;;;0.68;;
35245;SDS011;21379;50.962;6.960;2023-10-31T12:08:46;1.85;;;0.80;;
35245;SDS011;21379;50.962;6.960;2023-10-31T12:11:14;2.03;;;0.60;;
35245;SDS011;21379;50.962;6.960;2023-10-31T12:13:51;0.80;;;0.60;;
35245;SDS011;21379;50.962;6.960;2023-10-31T12:16:19;1.27;;;0.65;;
35245;SDS011;21379;50.962;6.960;2023-10-31T12:18:55;2.42;;;1.00;;
35245;SDS011;21379;50.962;6.960;2023-10-31T12:24:04;2.38;;;0.70;;
35245;SDS011;21379;50.962;6.960;2023-10-31T12:26:32;1.90;;;0.60;;
35245;SDS011;21379;50.962;6.960;2023-10-31T12:29:10;5.45;;;0.80;;
35245;SDS011;21379;50.962;6.960;2023-10-31T12:31:44;2.35;;;0.80;;
35245;SDS011;21379;50.962;6.960;2023-10-31T12:34:19;2.35;;;0.80;;
35245;SDS011;21379;50.962;6.960;2023-10-31T12:36:50;4.97;;;0.88;;
35245;SDS011;21379;50.962;6.960;2023-10-31T12:39:26;1.40;;;0.70;;
35245;SDS011;21379;50.962;6.960;2023-10-31T12:41:54;0.70;;;0.60;;
35245;SDS011;21379;50.962;6.960;2023-10-31T12:44:23;1.73;;;0.70;;
35245;SDS011;21379;50.962;6.960;2023-10-31T12:46:50;2.53;;;0.90;;
35245;SDS011;21379;50.962;6.960;2023-10-31T12:49:19;3.35;;;1.35;;
35245;SDS011;21379;50.962;6.960;2023-10-31T12:51:55;1.92;;;0.90;;
35245;SDS011;21379;50.962;6.960;2023-10-31T12:54:28;1.55;;;0.77;;
35245;SDS011;21379;50.962;6.960;2023-10-31T12:56:58;2.53;;;1.35;;
35245;SDS011;21379;50.962;6.960;2023-10-31T12:59:25;4.72;;;0.90;;
35245;SDS011;21379;50.962;6.960;2023-10-31T13:01:52;3.35;;;0.88;;
35245;SDS011;21379;50.962;6.960;2023-10-31T13:04:25;1.05;;;0.60;;
35245;SDS011;21379;50.962;6.960;2023-10-31T13:06:56;1.77;;;0.60;;
35245;SDS011;21379;50.962;6.960;2023-10-31T13:09:23;1.77;;;0.77;;
35245;SDS011;21379;50.962;6.960;2023-10-31T13:11:50;2.70;;;0.60;;
35245;SDS011;21379;50.962;6.960;2023-10-31T13:14:16;1.95;;;1.10;;
35245;SDS011;21379;50.962;6.960;2023-10-31T13:16:43;2.90;;;0.80;;
35245;SDS011;21379;50.962;6.960;2023-10-31T13:19:10;2.15;;;0.85;;
35245;SDS011;21379;50.962;6.960;2023-10-31T13:21:38;5.72;;;3.00;;
35245;SDS011;21379;50.962;6.960;2023-10-31T13:24:05;4.97;;;1.20;;
35245;SDS011;21379;50.962;6.960;2023-10-31T13:26:33;2.30;;;0.50;;
35245;SDS011;21379;50.962;6.960;2023-10-31T13:29:00;7.38;;;1.13;;
35245;SDS011;21379;50.962;6.960;2023-10-31T13:31:27;2.58;;;1.00;;
35245;SDS011;21379;50.962;6.960;2023-10-31T13:33:53;2.30;;;0.65;;
35245;SDS011;21379;50.962;6.960;2023-10-31T13:36:20;2.15;;;0.90;;
35245;SDS011;21379;50.962;6.960;2023-10-31T13:38:49;2.63;;;0.57;;
35245;SDS011;21379;50.962;6.960;2023-10-31T13:41:15;3.00;;;1.05;;
35245;SDS011;21379;50.962;6.960;2023-10-31T13:43:42;1.65;;;0.60;;
35245;SDS011;21379;50.962;6.960;2023-10-31T13:46:08;5.05;;;1.35;;
35245;SDS011;21379;50.962;6.960;2023-10-31T13:48:35;4.72;;;1.08;;
35245;SDS011;21379;50.962;6.960;2023-10-31T13:51:02;2.22;;;1.10;;
35245;SDS011;21379;50.962;6.960;2023-10-31T13:53:30;2.20;;;0.80;;
35245;SDS011;21379;50.962;6.960;2023-10-31T13:55:58;3.28;;;0.90;;
35245;SDS011;21379;50.962;6.960;2023-10-31T13:58:25;4.20;;;0.98;;
35245;SDS011;21379;50.962;6.960;2023-10-31T14:00:52;2.33;;;1.00;;
35245;SDS011;21379;50.962;6.960;2023-10-31T14:03:18;2.03;;;1.08;;
35245;SDS011;21379;50.962;6.960;2023-10-31T14:05:45;2.83;;;1.00;;
35245;SDS011;21379;50.962;6.960;2023-10-31T14:08:12;5.00;;;1.67;;
35245;SDS011;21379;50.962;6.960;2023-10-31T14:10:38;4.75;;;0.90;;
35245;SDS011;21379;50.962;6.960;2023-10-31T14:13:09;3.25;;;1.00;;
35245;SDS011;21379;50.962;6.960;2023-10-31T14:15:35;5.22;;;1.27;;
35245;SDS011;21379;50.962;6.960;2023-10-31T14:18:02;3.60;;;1.00;;
35245;SDS011;21379;50.962;6.960;2023-10-31T14:20:29;4.10;;;1.10;;
35245;SDS011;21379;50.962;6.960;2023-10-31T14:22:56;4.28;;;0.90;;
35245;SDS011;21379;50.962;6.960;2023-10-31T14:25:23;3.38;;;0.80;;
35245;SDS011;21379;50.962;6.960;2023-10-31T14:27:50;1.48;;;0.90;;
35245;SDS011;21379;50.962;6.960;2023-10-31T14:30:18;2.72;;;0.93;;
35245;SDS011;21379;50.962;6.960;2023-10-31T14:32:44;2.97;;;1.13;;
35245;SDS011;21379;50.962;6.960;2023-10-31T14:35:11;3.00;;;0.70;;
35245;SDS011;21379;50.962;6.960;2023-10-31T14:37:38;4.18;;;1.00;;
35245;SDS011;21379;50.962;6.960;2023-10-31T14:40:05;2.33;;;0.90;;
35245;SDS011;21379;50.962;6.960;2023-10-31T14:42:32;12.43;;;1.15;;
35245;SDS011;21379;50.962;6.960;2023-10-31T14:45:02;2.22;;;1.00;;
35245;SDS011;21379;50.962;6.960;2023-10-31T14:47:31;2.33;;;0.90;;
35245;SDS011;21379;50.962;6.960;2023-10-31T14:49:58;4.43;;;0.88;;
35245;SDS011;21379;50.962;6.960;2023-10-31T14:52:25;4.55;;;0.82;;
35245;SDS011;21379;50.962;6.960;2023-10-31T14:54:52;3.38;;;0.75;;
35245;SDS011;21379;50.962;6.960;2023-10-31T14:57:18;2.30;;;0.80;;
35245;SDS011;21379;50.962;6.960;2023-10-31T14:59:45;3.95;;;1.42;;
35245;SDS011;21379;50.962;6.960;2023-10-31T15:02:12;6.32;;;0.80;;